createdAt,value
2023-03-27T00:03:16.128Z,99353.50
2023-03-27T00:08:22.769Z,99345.94
2023-03-27T00:13:31.283Z,99342.88
2023-03-27T00:18:37.951Z,99336.94
2023-03-27T00:23:44.577Z,99333.25
2023-03-27T00:28:53.060Z,99332.59
2023-03-27T00:33:59.378Z,99337.59
2023-03-27T00:39:06.941Z,99335.72
2023-03-27T00:44:28.561Z,99330.56
2023-03-27T00:49:38.653Z,99328.06
2023-03-27T00:54:47.156Z,99317.06
2023-03-27T00:59:59.584Z,99313.78
2023-03-27T01:05:08.166Z,99310.59
2023-03-27T01:10:15.395Z,99307.38
2023-03-27T01:15:37.464Z,99305.81
2023-03-27T01:21:24.220Z,99310.78
2023-03-27T01:27:03.541Z,99302.44
2023-03-27T01:33:26.117Z,99294.84
2023-03-27T01:39:25.030Z,99298.28
2023-03-27T01:44:46.292Z,99317.88
2023-03-27T01:49:58.673Z,99324.72
2023-03-27T01:55:12.610Z,99326.50
2023-03-27T02:00:24.704Z,99329.25
2023-03-27T02:05:48.624Z,99330.19
2023-03-27T02:11:00.730Z,99328.53
2023-03-27T02:16:12.428Z,99322.63
2023-03-27T02:21:19.088Z,99317.56
2023-03-27T02:26:27.601Z,99322.66
2023-03-27T02:31:54.593Z,99327.03
2023-03-27T02:37:10.090Z,99329.78
2023-03-27T02:43:02.959Z,99325.41
2023-03-27T02:48:17.772Z,99334.78
2023-03-27T02:53:28.740Z,99336.59
2023-03-27T02:58:45.947Z,99347.09
2023-03-27T03:04:12.321Z,99348.69
2023-03-27T03:09:32.613Z,99344.50
2023-03-27T03:14:44.579Z,99348.69
2023-03-27T03:19:51.278Z,99354.69
2023-03-27T03:24:57.805Z,99355.56
2023-03-27T03:30:11.220Z,99359.03
2023-03-27T03:35:30.155Z,99354.75
2023-03-27T03:40:38.190Z,99355.69
2023-03-27T03:45:46.033Z,99351.28
2023-03-27T03:50:52.710Z,99348.91
2023-03-27T03:55:59.205Z,99353.03
2023-03-27T04:01:09.471Z,99360.59
2023-03-27T04:06:25.857Z,99371.94
2023-03-27T04:11:37.844Z,99371.94
2023-03-27T04:16:56.666Z,99366.78
2023-03-27T04:22:07.330Z,99379.56
2023-03-27T04:27:15.896Z,99380.25
2023-03-27T04:32:39.921Z,99393.88
2023-03-27T04:38:09.014Z,99407.75
2023-03-27T04:43:22.174Z,99413.66
2023-03-27T04:48:31.122Z,99415.28
2023-03-27T04:53:39.137Z,99425.44
2023-03-27T04:58:48.687Z,99416.75
2023-03-27T05:03:58.260Z,99418.44
2023-03-27T05:09:21.464Z,99431.19
2023-03-27T05:14:28.356Z,99424.25
2023-03-27T05:19:42.666Z,99429.34
2023-03-27T05:24:49.151Z,99428.31
2023-03-27T05:29:56.127Z,99435.88
2023-03-27T05:35:04.644Z,99439.94
2023-03-27T05:40:21.374Z,99433.78
2023-03-27T05:45:29.670Z,99445.72
2023-03-27T05:50:37.959Z,99443.09
2023-03-27T05:56:03.111Z,99440.38
2023-03-27T06:01:19.260Z,99446.19
2023-03-27T06:06:28.096Z,99447.81
2023-03-27T06:11:38.416Z,99460.75
2023-03-27T06:16:45.064Z,99461.53
2023-03-27T06:22:20.901Z,99470.88
2023-03-27T06:27:28.697Z,99475.13
2023-03-27T06:32:36.757Z,99482.06
2023-03-27T06:37:52.371Z,99477.69
2023-03-27T06:43:04.243Z,99490.44
2023-03-27T06:48:21.528Z,99493.84
2023-03-27T06:53:36.547Z,99492.94
2023-03-27T06:58:49.575Z,99497.09
2023-03-27T07:03:57.151Z,99500.47
2023-03-27T07:09:25.604Z,99521.94
2023-03-27T07:14:42.396Z,99527.84
2023-03-27T07:19:48.729Z,99529.44
2023-03-27T07:24:58.266Z,99537.09
2023-03-27T07:30:16.235Z,99538.91
2023-03-27T07:35:23.173Z,99546.50
2023-03-27T07:40:50.791Z,99547.91
2023-03-27T07:46:17.768Z,99552.22
2023-03-27T07:51:24.568Z,99558.28
2023-03-27T07:56:34.459Z,99568.63
2023-03-27T08:02:04.454Z,99573.75
2023-03-27T08:07:15.405Z,99588.31
2023-03-27T08:12:25.000Z,99592.63
2023-03-27T08:17:38.109Z,99604.75
2023-03-27T08:22:45.172Z,99613.47
2023-03-27T08:28:19.337Z,99622.06
2023-03-27T08:33:27.984Z,99625.34
2023-03-27T08:38:35.153Z,99621.72
2023-03-27T08:43:56.566Z,99627.63
2023-03-27T08:49:11.574Z,99634.72
2023-03-27T08:54:24.230Z,99640.69
2023-03-27T08:59:33.678Z,99644.16
2023-03-27T09:04:48.952Z,99656.09
2023-03-27T09:10:04.338Z,99662.28
2023-03-27T09:15:26.536Z,99666.63
2023-03-27T09:20:36.729Z,99660.50
2023-03-27T09:25:50.272Z,99676.03
2023-03-27T09:31:26.817Z,99678.44
2023-03-27T09:36:36.065Z,99672.13
2023-03-27T09:41:48.378Z,99680.66
2023-03-27T09:47:04.736Z,99685.81
2023-03-27T09:52:39.495Z,99686.66
2023-03-27T09:58:13.150Z,99696.91
2023-03-27T10:03:24.972Z,99698.56
2023-03-27T10:08:42.473Z,99692.31
2023-03-27T10:13:58.522Z,99697.38
2023-03-27T10:19:08.376Z,99699.16
2023-03-27T10:24:28.087Z,99700.91
2023-03-27T10:29:57.979Z,99700.97
2023-03-27T10:35:07.944Z,99709.47
2023-03-27T10:40:37.364Z,99712.94
2023-03-27T10:46:07.931Z,99716.94
2023-03-27T10:51:45.479Z,99713.41
2023-03-27T10:57:03.995Z,99716.94
2023-03-27T11:02:19.102Z,99728.03
2023-03-27T11:07:38.261Z,99724.53
2023-03-27T11:12:55.153Z,99726.91
2023-03-27T11:18:08.774Z,99723.53
2023-03-27T11:23:32.452Z,99730.41
2023-03-27T11:29:10.711Z,99728.41
2023-03-27T11:34:32.781Z,99724.66
2023-03-27T11:40:07.419Z,99724.66
2023-03-27T11:45:17.049Z,99722.38
2023-03-27T11:50:27.851Z,99718.22
2023-03-27T11:55:45.535Z,99709.84
2023-03-27T12:01:02.284Z,99706.25
2023-03-27T12:06:21.142Z,99715.91
2023-03-27T12:11:31.812Z,99711.66
2023-03-27T12:17:16.455Z,99712.44
2023-03-27T12:22:48.911Z,99710.50
2023-03-27T12:28:37.752Z,99709.28
2023-03-27T12:34:05.416Z,99716.88
2023-03-27T12:39:21.570Z,99711.75
2023-03-27T12:44:32.827Z,99718.88
2023-03-27T12:49:58.844Z,99721.69
2023-03-27T12:55:34.579Z,99746.84
2023-03-27T13:00:54.136Z,99756.34
2023-03-27T13:06:23.540Z,99780.03
2023-03-27T13:12:07.919Z,99774.88
2023-03-27T13:17:49.745Z,99784.13
2023-03-27T13:23:12.202Z,99780.66
2023-03-27T13:28:38.384Z,99804.16
2023-03-27T13:34:15.982Z,99810.28
2023-03-27T13:39:26.629Z,99823.38
2023-03-27T13:45:05.066Z,99841.69
2023-03-27T13:50:42.678Z,99858.38
2023-03-27T13:56:29.780Z,99876.72
2023-03-27T14:02:01.404Z,99896.03
2023-03-27T14:08:21.553Z,99909.44
2023-03-27T14:14:24.059Z,99932.16
2023-03-27T14:20:15.213Z,99949.25
2023-03-27T14:25:31.889Z,99968.03
2023-03-27T14:30:54.937Z,99968.94
2023-03-27T14:36:28.902Z,99976.75
2023-03-27T14:41:48.674Z,99972.47
2023-03-27T14:47:01.381Z,99980.25
2023-03-27T14:52:09.565Z,99982.84
2023-03-27T14:57:36.363Z,99977.81
2023-03-27T15:02:48.246Z,99987.19
2023-03-27T15:07:56.013Z,99987.25
2023-03-27T15:13:34.196Z,99983.81
2023-03-27T15:18:57.037Z,100004.44
2023-03-27T15:24:10.940Z,100018.22
2023-03-27T15:29:32.640Z,100026.88
2023-03-27T15:34:46.728Z,100028.69
2023-03-27T15:40:34.367Z,100040.81
2023-03-27T15:46:02.214Z,100044.28
2023-03-27T15:51:12.751Z,100052.09
2023-03-27T15:56:25.152Z,100061.59
2023-03-27T16:01:39.811Z,100060.88
2023-03-27T16:06:52.373Z,100074.59
2023-03-27T16:12:01.301Z,100081.53
2023-03-27T16:17:35.383Z,100091.03
2023-03-27T16:22:43.408Z,100101.44
2023-03-27T16:27:55.058Z,100109.19
2023-03-27T16:33:04.210Z,100117.78
2023-03-27T16:38:11.467Z,100129.84
2023-03-27T16:43:18.358Z,100141.06
2023-03-27T16:48:28.009Z,100166.09
2023-03-27T16:53:38.446Z,100169.56
2023-03-27T16:58:54.660Z,100188.50
2023-03-27T17:04:05.016Z,100204.00
2023-03-27T17:09:13.233Z,100221.28
2023-03-27T17:14:25.055Z,100238.50
2023-03-27T17:19:35.568Z,100235.94
2023-03-27T17:24:55.272Z,100247.97
2023-03-27T17:30:09.763Z,100256.56
2023-03-27T17:35:18.911Z,100263.44
2023-03-27T17:40:26.552Z,100272.03
2023-03-27T17:45:44.004Z,100284.06
2023-03-27T17:51:05.587Z,100288.34
2023-03-27T17:56:16.235Z,100293.50
2023-03-27T18:01:26.564Z,100304.66
2023-03-27T18:06:37.624Z,100308.94
2023-03-27T18:11:46.331Z,100320.97
2023-03-27T18:16:56.977Z,100319.25
2023-03-27T18:22:08.926Z,100326.09
2023-03-27T18:27:18.769Z,100338.09
2023-03-27T18:32:28.131Z,100335.50
2023-03-27T18:37:39.390Z,100344.88
2023-03-27T18:42:49.816Z,100348.28
2023-03-27T18:48:03.477Z,100354.25
2023-03-27T18:53:16.767Z,100350.72
2023-03-27T18:58:27.794Z,100355.03
2023-03-27T19:03:37.294Z,100352.38
2023-03-27T19:08:48.817Z,100354.03
2023-03-27T19:13:58.471Z,100361.72
2023-03-27T19:19:31.768Z,100371.16
2023-03-27T19:25:01.263Z,100374.53
2023-03-27T19:30:15.804Z,100376.09
2023-03-27T19:35:25.849Z,100387.16
2023-03-27T19:40:36.091Z,100379.41
2023-03-27T19:46:08.053Z,100386.25
2023-03-27T19:51:24.397Z,100388.72
2023-03-27T19:56:38.473Z,100385.25
2023-03-27T20:01:49.717Z,100389.47
2023-03-27T20:06:59.889Z,100393.69
2023-03-27T20:12:13.361Z,100386.75
2023-03-27T20:17:28.129Z,100397.88
2023-03-27T20:22:50.096Z,100398.72
2023-03-27T20:28:07.923Z,100402.94
2023-03-27T20:33:16.134Z,100400.31
2023-03-27T20:38:24.565Z,100402.78
2023-03-27T20:43:35.601Z,100411.34
2023-03-27T20:48:53.962Z,100401.84
2023-03-27T20:54:02.161Z,100412.09
2023-03-27T20:59:10.461Z,100410.31
2023-03-27T21:04:17.962Z,100414.53
2023-03-27T21:09:25.749Z,100405.81
2023-03-27T21:14:34.956Z,100412.38
2023-03-27T21:19:41.678Z,100410.63
2023-03-27T21:24:48.433Z,100409.69
2023-03-27T21:29:56.572Z,100407.06
2023-03-27T21:35:03.325Z,100403.44
2023-03-27T21:40:11.683Z,100411.19
2023-03-27T21:45:20.108Z,100404.22
2023-03-27T21:50:26.647Z,100404.88
2023-03-27T21:55:34.676Z,100402.31
2023-03-27T22:00:42.985Z,100397.06
2023-03-27T22:06:01.010Z,100392.75
2023-03-27T22:11:17.781Z,100385.84
2023-03-27T22:16:27.877Z,100379.00
2023-03-27T22:21:35.020Z,100376.31
2023-03-27T22:26:42.483Z,100378.78
2023-03-27T22:31:50.575Z,100378.66
2023-03-27T22:36:57.202Z,100375.00
2023-03-27T22:42:04.020Z,100389.53
2023-03-27T22:47:12.332Z,100387.69
2023-03-27T22:52:19.110Z,100394.16
2023-03-27T22:57:25.703Z,100392.31
2023-03-27T23:02:33.852Z,100396.50
2023-03-27T23:07:40.494Z,100399.56
2023-03-27T23:12:46.878Z,100404.72
2023-03-27T23:17:56.640Z,100401.78
2023-03-27T23:23:03.189Z,100408.44
2023-03-27T23:28:09.687Z,100407.69
2023-03-27T23:33:17.739Z,100410.09
2023-03-27T23:38:24.303Z,100406.66
2023-03-27T23:43:32.266Z,100405.59
2023-03-27T23:48:42.155Z,100397.84
2023-03-27T23:53:48.493Z,100404.03
2023-03-27T23:58:55.183Z,100405.84
